Terminal Aerodrome Forecast
Issued by NWS Lake Charles, LA

Home | Current Version | Previous Version | Text Only | Print | Product List | Glossary On
Versions: 1 2 3 4 5 6 7 8 9 10 11 12
000
FTUS44 KLCH 251130
TAFLCH
TAF
KLCH 251130Z 2512/2612 00000KT P6SM BKN250
     FM251400 VRB03KT P6SM VCSH SCT015 BKN200
     FM251700 09006KT P6SM VCTS SCT035CB BKN200
      TEMPO 2518/2522 VRB12G25KT 2SM +TSRA BKN025CB
     FM260100 08003KT P6SM FEW050 BKN150=

USA.gov is the U.S. government's official web portal to all federal, state and local government web resources and services.